createdAt,value
2018-03-03T00:02:06.979Z,57.03
2018-03-03T00:04:35.284Z,55.92
2018-03-03T00:07:03.483Z,55.80
2018-03-03T00:09:31.497Z,54.53
2018-03-03T00:11:59.757Z,58.75
2018-03-03T00:14:27.845Z,56.75
2018-03-03T00:16:56.054Z,57.08
2018-03-03T00:19:24.339Z,58.08
2018-03-03T00:21:52.645Z,54.90
2018-03-03T00:24:20.946Z,55.83
2018-03-03T00:26:49.242Z,57.15
2018-03-03T00:29:17.536Z,54.80
2018-03-03T00:31:45.819Z,56.25
2018-03-03T00:34:14.018Z,57.38
2018-03-03T00:36:42.222Z,57.10
2018-03-03T00:39:10.503Z,56.13
2018-03-03T00:41:38.699Z,55.30
2018-03-03T00:44:06.997Z,52.62
2018-03-03T00:46:35.194Z,50.92
2018-03-03T00:49:03.401Z,52.97
2018-03-03T00:51:31.417Z,50.03
2018-03-03T00:53:59.578Z,51.85
2018-03-03T00:56:27.655Z,49.78
2018-03-03T00:58:55.854Z,51.17
2018-03-03T01:01:24.258Z,51.72
2018-03-03T01:03:52.460Z,49.65
2018-03-03T01:06:20.649Z,48.55
2018-03-03T01:08:48.848Z,49.25
2018-03-03T01:11:17.036Z,48.35
2018-03-03T01:13:45.440Z,48.83
2018-03-03T01:16:13.734Z,47.15
2018-03-03T01:18:42.029Z,48.17
2018-03-03T01:21:10.437Z,48.25
2018-03-03T01:23:38.725Z,45.38
2018-03-03T01:26:06.922Z,47.62
2018-03-03T01:28:35.116Z,46.95
2018-03-03T01:31:03.205Z,47.75
2018-03-03T01:33:31.334Z,50.22
2018-03-03T01:35:59.317Z,47.53
2018-03-03T01:38:27.579Z,46.42
2018-03-03T01:40:55.685Z,47.90
2018-03-03T01:43:23.882Z,49.95
2018-03-03T01:45:51.966Z,46.33
2018-03-03T01:48:20.165Z,46.05
2018-03-03T01:50:48.257Z,49.72
2018-03-03T01:53:16.557Z,49.58
2018-03-03T01:55:44.937Z,49.35
2018-03-03T01:58:13.246Z,49.30
2018-03-03T02:00:41.536Z,41.95
2018-03-03T02:03:09.845Z,47.17
2018-03-03T02:05:38.643Z,45.78
2018-03-03T02:08:06.839Z,48.40
2018-03-03T02:10:35.047Z,46.63
2018-03-03T02:13:04.362Z,47.42
2018-03-03T02:15:32.367Z,42.95
2018-03-03T02:18:00.439Z,45.20
2018-03-03T02:20:28.620Z,46.80
2018-03-03T02:22:56.716Z,43.63
2018-03-03T02:25:24.917Z,45.72
2018-03-03T02:27:53.717Z,45.40
2018-03-03T02:30:21.918Z,44.53
2018-03-03T02:32:50.119Z,44.72
2018-03-03T02:35:18.400Z,44.78
2018-03-03T02:37:46.604Z,46.88
2018-03-03T02:40:14.897Z,44.78
2018-03-03T02:42:43.200Z,45.40
2018-03-03T02:45:11.600Z,46.22
2018-03-03T02:47:39.684Z,47.13
2018-03-03T02:50:07.881Z,43.58
2018-03-03T02:52:36.081Z,46.03
2018-03-03T02:55:04.260Z,46.15
2018-03-03T02:57:33.185Z,46.60
2018-03-03T03:00:01.369Z,46.37
2018-03-03T03:02:29.558Z,45.65
2018-03-03T03:04:57.759Z,46.60
2018-03-03T03:07:25.961Z,49.17
2018-03-03T03:09:54.242Z,44.78
2018-03-03T03:12:22.336Z,46.03
2018-03-03T03:14:50.635Z,45.15
2018-03-03T03:17:19.034Z,45.55
2018-03-03T03:19:47.438Z,45.72
2018-03-03T03:22:15.841Z,45.63
2018-03-03T03:24:44.239Z,46.30
2018-03-03T03:27:12.541Z,49.97
2018-03-03T03:29:40.837Z,46.83
2018-03-03T03:32:09.020Z,47.35
2018-03-03T03:34:37.216Z,46.08
2018-03-03T03:37:05.166Z,46.35
2018-03-03T03:39:33.401Z,44.70
2018-03-03T03:42:01.602Z,46.90
2018-03-03T03:44:29.800Z,47.72
2018-03-03T03:46:57.982Z,50.30
2018-03-03T03:49:26.177Z,49.20
2018-03-03T03:51:54.264Z,48.55
2018-03-03T03:54:22.485Z,51.63
2018-03-03T03:56:50.560Z,47.35
2018-03-03T03:59:18.956Z,51.05
2018-03-03T04:01:47.265Z,46.75
2018-03-03T04:04:15.481Z,50.12
2018-03-03T04:06:43.740Z,48.22
2018-03-03T04:09:12.547Z,54.42
2018-03-03T04:11:40.960Z,52.70
2018-03-03T04:14:09.161Z,51.25
2018-03-03T04:16:37.281Z,52.95
2018-03-03T04:19:05.336Z,54.22
2018-03-03T04:21:33.417Z,52.65
2018-03-03T04:24:01.623Z,54.05
2018-03-03T04:26:29.716Z,55.80
2018-03-03T04:28:59.237Z,52.65
2018-03-03T04:31:27.666Z,53.10
2018-03-03T04:33:55.818Z,52.13
2018-03-03T04:36:24.116Z,52.33
2018-03-03T04:38:52.635Z,52.85
2018-03-03T04:41:20.943Z,57.35
2018-03-03T04:43:49.318Z,55.47
2018-03-03T04:46:17.621Z,51.00
2018-03-03T04:48:45.919Z,53.63
2018-03-03T04:51:14.201Z,54.38
2018-03-03T04:53:42.414Z,55.03
2018-03-03T04:56:10.539Z,56.47
2018-03-03T04:58:38.499Z,52.17
2018-03-03T05:01:06.783Z,54.92
2018-03-03T05:03:34.876Z,55.30
2018-03-03T05:06:03.078Z,52.90
2018-03-03T05:08:31.369Z,54.50
2018-03-03T05:10:59.572Z,55.35
2018-03-03T05:13:27.658Z,52.80
2018-03-03T05:15:55.954Z,55.55
2018-03-03T05:18:24.236Z,60.53
2018-03-03T05:20:52.642Z,56.15
2018-03-03T05:23:20.834Z,56.08
2018-03-03T05:25:55.941Z,55.58
2018-03-03T05:28:24.230Z,58.05
2018-03-03T05:30:52.589Z,55.20
2018-03-03T05:33:20.876Z,57.28
2018-03-03T05:35:49.176Z,51.95
2018-03-03T05:38:17.577Z,56.25
2018-03-03T05:40:45.760Z,58.40
2018-03-03T05:43:13.857Z,59.10
2018-03-03T05:45:42.062Z,59.97
2018-03-03T05:48:10.257Z,57.70
2018-03-03T05:50:38.439Z,53.35
2018-03-03T05:53:06.535Z,54.83
2018-03-03T05:55:34.742Z,56.95
2018-03-03T05:58:02.839Z,59.67
2018-03-03T06:00:31.022Z,58.08
2018-03-03T06:02:59.220Z,61.75
2018-03-03T06:05:27.626Z,60.40
2018-03-03T06:07:55.797Z,57.25
2018-03-03T06:10:24.106Z,59.17
2018-03-03T06:12:52.396Z,54.45
2018-03-03T06:15:20.703Z,58.60
2018-03-03T06:17:48.982Z,60.55
2018-03-03T06:20:17.282Z,61.80
2018-03-03T06:22:45.497Z,58.15
2018-03-03T06:25:13.675Z,59.45
2018-03-03T06:27:41.769Z,59.50
2018-03-03T06:30:09.973Z,56.47
2018-03-03T06:32:38.064Z,53.60
2018-03-03T06:35:06.251Z,58.38
2018-03-03T06:37:34.449Z,54.97
2018-03-03T06:40:02.653Z,55.55
2018-03-03T06:42:30.738Z,55.53
2018-03-03T06:44:58.843Z,55.05
2018-03-03T06:47:27.318Z,57.72
2018-03-03T06:49:55.482Z,53.38
2018-03-03T06:52:23.565Z,57.90
2018-03-03T06:54:51.808Z,58.85
2018-03-03T06:57:20.106Z,61.97
2018-03-03T06:59:48.395Z,58.87
2018-03-03T07:02:16.595Z,55.83
2018-03-03T07:04:44.788Z,55.10
2018-03-03T07:07:12.984Z,55.95
2018-03-03T07:09:41.179Z,57.62
2018-03-03T07:12:09.365Z,60.42
2018-03-03T07:14:37.463Z,60.53
2018-03-03T07:17:05.661Z,55.75
2018-03-03T07:19:33.745Z,58.35
2018-03-03T07:22:01.949Z,52.85
2018-03-03T07:24:30.044Z,56.03
2018-03-03T07:26:58.285Z,58.70
2018-03-03T07:29:26.666Z,55.83
2018-03-03T07:31:54.770Z,59.10
2018-03-03T07:34:23.031Z,57.25
2018-03-03T07:36:51.522Z,57.62
2018-03-03T07:39:19.812Z,54.75
2018-03-03T07:41:48.956Z,57.40
2018-03-03T07:44:17.162Z,53.47
2018-03-03T07:46:45.525Z,58.65
2018-03-03T07:49:13.719Z,57.30
2018-03-03T07:51:42.458Z,56.60
2018-03-03T07:54:10.823Z,59.28
2018-03-03T07:56:39.337Z,55.22
2018-03-03T07:59:07.733Z,57.45
2018-03-03T08:01:35.817Z,56.88
2018-03-03T08:04:04.077Z,56.03
2018-03-03T08:06:32.516Z,55.95
2018-03-03T08:09:01.157Z,58.72
2018-03-03T08:11:30.678Z,55.88
2018-03-03T08:13:59.236Z,55.53
2018-03-03T08:16:27.956Z,58.33
2018-03-03T08:18:56.340Z,55.65
2018-03-03T08:21:25.995Z,54.72
2018-03-03T08:23:54.380Z,54.65
2018-03-03T08:26:23.894Z,55.78
2018-03-03T08:28:53.421Z,58.17
2018-03-03T08:31:21.952Z,59.35
2018-03-03T08:33:50.847Z,55.28
2018-03-03T08:36:19.231Z,56.13
2018-03-03T08:38:47.407Z,55.00
2018-03-03T08:41:16.269Z,57.13
2018-03-03T08:43:44.809Z,58.33
2018-03-03T08:46:14.803Z,61.10
2018-03-03T08:48:42.928Z,61.33
2018-03-03T08:51:11.483Z,57.62
2018-03-03T08:53:40.285Z,57.55
2018-03-03T08:56:08.550Z,59.75
2018-03-03T08:58:36.729Z,56.95
2018-03-03T09:01:05.629Z,58.90
2018-03-03T09:03:34.208Z,57.42
2018-03-03T09:06:02.467Z,58.28
2018-03-03T09:08:31.820Z,57.83
2018-03-03T09:11:00.202Z,57.28
2018-03-03T09:13:28.769Z,56.30
2018-03-03T09:15:57.159Z,60.30
2018-03-03T09:18:25.978Z,58.25
2018-03-03T09:20:55.040Z,55.67
2018-03-03T09:23:23.311Z,56.35
2018-03-03T09:25:51.513Z,60.75
2018-03-03T09:28:19.682Z,56.58
2018-03-03T09:30:47.792Z,57.38
2018-03-03T09:33:15.998Z,58.70
2018-03-03T09:35:44.949Z,60.17
2018-03-03T09:38:13.405Z,60.55
2018-03-03T09:40:41.584Z,59.50
2018-03-03T09:43:09.784Z,58.47
2018-03-03T09:45:37.925Z,57.60
2018-03-03T09:48:06.187Z,61.35
2018-03-03T09:50:34.464Z,58.35
2018-03-03T09:53:02.817Z,57.08
2018-03-03T09:55:31.262Z,58.83
2018-03-03T09:57:59.567Z,59.95
2018-03-03T10:00:27.864Z,61.47
2018-03-03T10:02:56.160Z,64.00
2018-03-03T10:05:24.556Z,63.58
2018-03-03T10:07:52.748Z,62.88
2018-03-03T10:10:20.936Z,63.13
2018-03-03T10:12:49.139Z,62.35
2018-03-03T10:15:17.330Z,61.47
2018-03-03T10:17:45.644Z,61.95
2018-03-03T10:20:13.930Z,60.20
2018-03-03T10:22:42.117Z,60.92
2018-03-03T10:25:10.244Z,59.17
2018-03-03T10:27:38.298Z,62.22
2018-03-03T10:30:06.509Z,62.03
2018-03-03T10:32:34.840Z,64.55
2018-03-03T10:35:03.245Z,62.10
2018-03-03T10:37:32.619Z,63.60
2018-03-03T10:40:00.911Z,58.92
2018-03-03T10:42:29.208Z,64.45
2018-03-03T10:44:57.640Z,59.42
2018-03-03T10:47:25.904Z,58.10
2018-03-03T10:49:54.197Z,58.30
2018-03-03T10:52:22.409Z,61.25
2018-03-03T10:54:50.707Z,61.20
2018-03-03T10:57:18.882Z,60.80
2018-03-03T10:59:46.981Z,59.67
2018-03-03T11:02:15.100Z,61.33
2018-03-03T11:04:43.240Z,55.17
2018-03-03T11:07:11.474Z,55.60
2018-03-03T11:09:39.768Z,55.80
2018-03-03T11:12:08.002Z,54.50
2018-03-03T11:14:36.224Z,53.40
2018-03-03T11:17:04.717Z,56.65
2018-03-03T11:19:33.043Z,56.28
2018-03-03T11:22:01.350Z,56.75
2018-03-03T11:24:29.649Z,54.53
2018-03-03T11:26:57.773Z,57.05
2018-03-03T11:29:26.905Z,53.38
2018-03-03T11:31:55.149Z,54.70
2018-03-03T11:34:23.366Z,56.40
2018-03-03T11:36:51.740Z,51.78
2018-03-03T11:39:20.270Z,50.60
2018-03-03T11:41:48.426Z,48.58
2018-03-03T11:44:17.413Z,49.10
2018-03-03T11:46:45.543Z,47.53
2018-03-03T11:49:13.636Z,48.55
2018-03-03T11:51:41.730Z,51.05
2018-03-03T11:54:09.907Z,50.30
2018-03-03T11:56:38.208Z,50.78
2018-03-03T11:59:06.603Z,49.30
2018-03-03T12:01:34.921Z,49.88
2018-03-03T12:04:03.207Z,51.05
2018-03-03T12:06:31.503Z,49.50
2018-03-03T12:08:59.895Z,49.92
2018-03-03T12:11:29.116Z,48.03
2018-03-03T12:13:57.315Z,50.10
2018-03-03T12:16:25.620Z,49.45
2018-03-03T12:18:53.804Z,47.88
2018-03-03T12:21:21.907Z,45.35
2018-03-03T12:23:49.983Z,48.00
2018-03-03T12:26:18.084Z,48.42
2018-03-03T12:28:46.379Z,49.83
2018-03-03T12:31:14.572Z,46.83
2018-03-03T12:33:42.864Z,48.78
2018-03-03T12:36:11.004Z,45.00
2018-03-03T12:38:39.319Z,49.30
2018-03-03T12:41:07.717Z,50.17
2018-03-03T12:43:36.052Z,50.22
2018-03-03T12:46:04.473Z,51.85
2018-03-03T12:48:32.962Z,45.28
2018-03-03T12:51:01.246Z,48.05
2018-03-03T12:53:29.560Z,48.72
2018-03-03T12:55:57.758Z,49.15
2018-03-03T12:58:26.173Z,46.95
2018-03-03T13:00:54.341Z,50.72
2018-03-03T13:03:22.429Z,46.03
2018-03-03T13:05:50.624Z,46.37
2018-03-03T13:08:18.689Z,45.75
2018-03-03T13:10:47.008Z,49.35
2018-03-03T13:13:16.321Z,50.90
2018-03-03T13:15:44.425Z,48.10
2018-03-03T13:18:12.618Z,46.80
2018-03-03T13:20:40.947Z,47.45
2018-03-03T13:23:09.250Z,48.50
2018-03-03T13:25:37.510Z,46.30
2018-03-03T13:28:05.717Z,44.97
2018-03-03T13:30:33.841Z,45.50
2018-03-03T13:33:01.914Z,46.85
2018-03-03T13:35:30.209Z,45.20
2018-03-03T13:37:58.339Z,48.40
2018-03-03T13:40:26.531Z,47.92
2018-03-03T13:42:54.917Z,47.78
2018-03-03T13:45:23.017Z,46.75
2018-03-03T13:47:51.258Z,48.58
2018-03-03T13:50:19.381Z,48.33
2018-03-03T13:52:47.993Z,44.28
2018-03-03T13:55:16.310Z,45.60
2018-03-03T13:57:45.316Z,48.67
2018-03-03T14:00:13.456Z,50.10
2018-03-03T14:02:41.883Z,48.50
2018-03-03T14:05:10.060Z,52.55
2018-03-03T14:07:38.443Z,52.83
2018-03-03T14:10:06.725Z,48.85
2018-03-03T14:12:35.056Z,50.10
2018-03-03T14:15:03.316Z,50.10
2018-03-03T14:17:31.469Z,48.05
2018-03-03T14:19:59.804Z,52.80
2018-03-03T14:22:27.962Z,49.95
2018-03-03T14:24:56.340Z,57.65
2018-03-03T14:27:24.517Z,55.10
2018-03-03T14:29:52.824Z,50.40
2018-03-03T14:32:20.972Z,52.78
2018-03-03T14:34:49.403Z,53.70
2018-03-03T14:37:17.555Z,51.58
2018-03-03T14:39:45.636Z,52.33
2018-03-03T14:42:14.405Z,49.28
2018-03-03T14:44:42.977Z,49.85
2018-03-03T14:47:11.236Z,47.85
2018-03-03T14:49:39.484Z,47.70
2018-03-03T14:52:07.639Z,46.58
2018-03-03T14:54:35.856Z,48.92
2018-03-03T14:57:04.075Z,48.83
2018-03-03T14:59:32.362Z,47.53
2018-03-03T15:02:00.371Z,47.20
2018-03-03T15:04:28.546Z,46.83
2018-03-03T15:06:56.847Z,48.85
2018-03-03T15:09:25.138Z,49.22
2018-03-03T15:11:53.344Z,47.83
2018-03-03T15:14:21.550Z,48.08
2018-03-03T15:16:49.726Z,49.75
2018-03-03T15:19:17.920Z,48.40
2018-03-03T15:21:46.049Z,48.65
2018-03-03T15:24:14.108Z,45.67
2018-03-03T15:26:42.305Z,49.13
2018-03-03T15:29:10.515Z,48.97
2018-03-03T15:31:38.784Z,52.88
2018-03-03T15:34:06.931Z,48.65
2018-03-03T15:36:35.184Z,47.42
2018-03-03T15:39:03.372Z,46.05
2018-03-03T15:41:31.561Z,45.75
2018-03-03T15:43:59.773Z,49.00
2018-03-03T15:46:27.956Z,44.60
2018-03-03T15:48:55.965Z,45.15
2018-03-03T15:51:24.047Z,47.72
2018-03-03T15:53:52.146Z,47.60
2018-03-03T15:56:20.349Z,47.35
2018-03-03T15:58:48.738Z,47.22
2018-03-03T16:01:16.837Z,47.28
2018-03-03T16:03:45.011Z,48.22
2018-03-03T16:06:13.204Z,48.28
2018-03-03T16:08:41.503Z,50.30
2018-03-03T16:11:09.797Z,47.45
2018-03-03T16:13:37.908Z,50.17
2018-03-03T16:16:06.695Z,48.33
2018-03-03T16:18:35.108Z,49.03
2018-03-03T16:21:03.292Z,49.40
2018-03-03T16:23:31.628Z,48.53
2018-03-03T16:25:59.939Z,49.03
2018-03-03T16:28:28.180Z,51.30
2018-03-03T16:30:56.239Z,49.95
2018-03-03T16:33:24.467Z,52.75
2018-03-03T16:35:52.774Z,53.40
2018-03-03T16:38:20.883Z,52.83
2018-03-03T16:40:48.991Z,54.30
2018-03-03T16:43:17.354Z,51.60
2018-03-03T16:45:45.754Z,50.50
2018-03-03T16:48:14.240Z,54.63
2018-03-03T16:50:42.653Z,53.70
2018-03-03T16:53:11.025Z,52.53
2018-03-03T16:55:39.363Z,50.45
2018-03-03T16:58:07.554Z,54.03
2018-03-03T17:00:35.827Z,50.50
2018-03-03T17:03:04.032Z,49.03
2018-03-03T17:05:32.339Z,50.38
2018-03-03T17:08:00.416Z,51.65
2018-03-03T17:10:28.608Z,52.65
2018-03-03T17:12:56.918Z,51.47
2018-03-03T17:15:25.069Z,53.20
2018-03-03T17:17:53.299Z,66.07
2018-03-03T17:20:21.585Z,56.78
2018-03-03T17:22:49.720Z,57.85
2018-03-03T17:25:18.800Z,63.70
2018-03-03T17:27:47.004Z,57.08
2018-03-03T17:30:15.257Z,65.35
2018-03-03T17:32:43.596Z,62.58
2018-03-03T17:35:11.677Z,56.63
2018-03-03T17:37:39.921Z,60.25
2018-03-03T17:40:08.390Z,55.72
2018-03-03T17:42:36.437Z,57.40
2018-03-03T17:45:04.616Z,57.53
2018-03-03T17:47:32.978Z,53.03
2018-03-03T17:50:01.103Z,55.42
2018-03-03T17:52:29.328Z,55.60
2018-03-03T17:54:57.406Z,55.35
2018-03-03T17:57:25.943Z,53.05
2018-03-03T17:59:54.293Z,58.63
2018-03-03T18:02:22.638Z,55.65
2018-03-03T18:04:50.947Z,56.40
2018-03-03T18:07:19.325Z,58.30
2018-03-03T18:09:47.744Z,61.13
2018-03-03T18:12:16.325Z,59.63
2018-03-03T18:14:44.832Z,58.72
2018-03-03T18:17:13.442Z,58.80
2018-03-03T18:19:42.194Z,61.08
2018-03-03T18:22:10.402Z,57.47
2018-03-03T18:24:38.637Z,66.20
2018-03-03T18:27:06.944Z,64.53
2018-03-03T18:29:35.045Z,60.70
2018-03-03T18:32:03.168Z,62.83
2018-03-03T18:34:31.650Z,55.22
2018-03-03T18:37:00.318Z,54.53
2018-03-03T18:39:28.625Z,54.55
2018-03-03T18:41:57.256Z,60.40
2018-03-03T18:44:26.137Z,56.10
2018-03-03T18:46:54.667Z,54.75
2018-03-03T18:49:23.029Z,61.00
2018-03-03T18:51:51.843Z,57.53
2018-03-03T18:54:20.854Z,58.80
2018-03-03T18:56:49.338Z,56.33
2018-03-03T18:59:17.745Z,57.78
2018-03-03T19:01:46.591Z,56.30
2018-03-03T19:04:15.406Z,57.00
2018-03-03T19:06:47.396Z,55.97
2018-03-03T19:09:16.844Z,54.35
2018-03-03T19:11:45.789Z,54.25
2018-03-03T19:14:14.314Z,54.28
2018-03-03T19:16:43.733Z,58.17
2018-03-03T19:19:12.362Z,60.53
2018-03-03T19:21:41.003Z,59.55
2018-03-03T19:24:10.857Z,57.78
2018-03-03T19:26:39.491Z,59.22
2018-03-03T19:29:08.367Z,60.90
2018-03-03T19:31:36.752Z,59.50
2018-03-03T19:34:05.249Z,55.78
2018-03-03T19:36:34.178Z,60.40
2018-03-03T19:39:04.607Z,59.25
2018-03-03T19:41:34.357Z,60.60
2018-03-03T19:44:03.260Z,61.13
2018-03-03T19:46:31.486Z,54.80
2018-03-03T19:49:01.220Z,54.38
2018-03-03T19:51:29.443Z,59.15
2018-03-03T19:53:57.758Z,56.60
2018-03-03T19:56:26.074Z,59.40
2018-03-03T19:58:54.158Z,58.22
2018-03-03T20:01:22.594Z,61.67
2018-03-03T20:03:51.797Z,60.00
2018-03-03T20:06:20.150Z,57.65
2018-03-03T20:08:48.696Z,62.05
2018-03-03T20:11:17.078Z,54.15
2018-03-03T20:13:45.584Z,55.83
2018-03-03T20:16:14.008Z,58.83
2018-03-03T20:18:42.372Z,58.97
2018-03-03T20:21:10.557Z,56.72
2018-03-03T20:23:38.763Z,55.15
2018-03-03T20:26:06.918Z,56.60
2018-03-03T20:28:35.016Z,54.72
2018-03-03T20:31:03.239Z,58.47
2018-03-03T20:33:31.343Z,57.42
2018-03-03T20:35:59.536Z,55.38
2018-03-03T20:38:27.941Z,57.42
2018-03-03T20:40:56.236Z,56.08
2018-03-03T20:43:24.322Z,55.33
2018-03-03T20:45:52.460Z,53.92
2018-03-03T20:48:20.698Z,59.13
2018-03-03T20:50:48.900Z,53.13
2018-03-03T20:53:17.110Z,55.12
2018-03-03T20:55:46.099Z,56.28
2018-03-03T20:58:14.201Z,55.10
2018-03-03T21:00:42.404Z,59.33
2018-03-03T21:03:10.599Z,60.35
2018-03-03T21:05:38.779Z,56.13
2018-03-03T21:08:06.978Z,60.12
2018-03-03T21:10:34.967Z,59.80
2018-03-03T21:13:03.159Z,57.30
2018-03-03T21:15:31.261Z,52.30
2018-03-03T21:17:59.449Z,54.78
2018-03-03T21:20:27.535Z,56.10
2018-03-03T21:22:55.959Z,58.67
2018-03-03T21:25:24.243Z,61.45
2018-03-03T21:27:52.435Z,57.20
2018-03-03T21:30:20.638Z,54.10
2018-03-03T21:32:49.842Z,60.25
2018-03-03T21:35:17.951Z,54.78
2018-03-03T21:37:46.228Z,54.13
2018-03-03T21:40:14.438Z,55.75
2018-03-03T21:42:42.625Z,56.47
2018-03-03T21:45:10.725Z,57.50
2018-03-03T21:47:39.224Z,58.85
2018-03-03T21:50:07.244Z,53.63
2018-03-03T21:52:42.685Z,52.05
2018-03-03T21:55:10.864Z,53.78
2018-03-03T21:57:39.564Z,52.40
2018-03-03T22:00:07.848Z,53.20
2018-03-03T22:02:36.048Z,57.22
2018-03-03T22:05:04.158Z,54.85
2018-03-03T22:07:32.346Z,53.97
2018-03-03T22:10:00.530Z,53.87
2018-03-03T22:12:28.663Z,54.13
2018-03-03T22:14:57.025Z,52.67
2018-03-03T22:17:25.285Z,56.78
2018-03-03T22:19:53.377Z,54.17
2018-03-03T22:22:21.806Z,54.70
2018-03-03T22:24:50.121Z,54.28
2018-03-03T22:27:18.853Z,52.25
2018-03-03T22:29:47.330Z,54.95
2018-03-03T22:32:16.383Z,56.13
2018-03-03T22:34:44.754Z,55.65
2018-03-03T22:37:13.641Z,52.95
2018-03-03T22:39:42.477Z,50.22
2018-03-03T22:42:11.602Z,51.37
2018-03-03T22:44:42.092Z,53.47
2018-03-03T22:47:11.883Z,54.20
2018-03-03T22:49:41.292Z,52.33
2018-03-03T22:52:09.992Z,54.50
2018-03-03T22:54:38.913Z,49.40
2018-03-03T22:57:07.972Z,57.60
2018-03-03T22:59:36.247Z,57.10
2018-03-03T23:02:05.080Z,56.63
2018-03-03T23:04:33.787Z,51.47
2018-03-03T23:07:04.943Z,56.33
2018-03-03T23:12:11.352Z,59.10
2018-03-03T23:14:40.172Z,56.95
2018-03-03T23:17:08.589Z,54.55
2018-03-03T23:19:37.029Z,54.80
2018-03-03T23:22:05.884Z,52.22
2018-03-03T23:24:34.436Z,53.28
2018-03-03T23:27:02.895Z,53.35
2018-03-03T23:29:31.745Z,52.88
2018-03-03T23:32:00.165Z,54.22
2018-03-03T23:34:28.905Z,53.78
2018-03-03T23:36:57.303Z,55.33
2018-03-03T23:39:25.701Z,53.53
2018-03-03T23:41:54.191Z,53.85
2018-03-03T23:44:22.807Z,51.58
2018-03-03T23:46:52.228Z,50.67
2018-03-03T23:49:20.872Z,52.90
2018-03-03T23:51:49.545Z,54.17
2018-03-03T23:54:17.872Z,53.63
2018-03-03T23:56:46.327Z,54.78
2018-03-03T23:59:14.858Z,56.15
